sensor_id;sensor_type;location;lat;lon;timestamp;P1;durP1;ratioP1;P2;durP2;ratioP2
22172;SDS011;11252;50.596;17.648;2022-12-29T00:01:00;25.53;;;13.13;;
22172;SDS011;11252;50.596;17.648;2022-12-29T00:03:28;27.77;;;13.70;;
22172;SDS011;11252;50.596;17.648;2022-12-29T00:05:56;24.50;;;12.67;;
22172;SDS011;11252;50.596;17.648;2022-12-29T00:08:24;28.00;;;13.50;;
22172;SDS011;11252;50.596;17.648;2022-12-29T00:11:16;175.57;;;88.93;;
22172;SDS011;11252;50.596;17.648;2022-12-29T00:13:46;36.53;;;28.33;;
22172;SDS011;11252;50.596;17.648;2022-12-29T00:16:33;37.60;;;23.37;;
22172;SDS011;11252;50.596;17.648;2022-12-29T00:19:02;23.87;;;15.33;;
22172;SDS011;11252;50.596;17.648;2022-12-29T00:21:30;38.03;;;24.73;;
22172;SDS011;11252;50.596;17.648;2022-12-29T00:24:20;35.07;;;23.03;;
22172;SDS011;11252;50.596;17.648;2022-12-29T00:27:10;39.50;;;23.20;;
22172;SDS011;11252;50.596;17.648;2022-12-29T00:29:58;26.67;;;15.27;;
22172;SDS011;11252;50.596;17.648;2022-12-29T00:32:44;55.60;;;28.83;;
22172;SDS011;11252;50.596;17.648;2022-12-29T00:35:39;52.07;;;25.17;;
22172;SDS011;11252;50.596;17.648;2022-12-29T00:39:06;18.40;;;10.37;;
22172;SDS011;11252;50.596;17.648;2022-12-29T00:41:52;38.53;;;19.70;;
22172;SDS011;11252;50.596;17.648;2022-12-29T00:44:38;16.80;;;10.10;;
22172;SDS011;11252;50.596;17.648;2022-12-29T00:47:05;61.50;;;32.80;;
22172;SDS011;11252;50.596;17.648;2022-12-29T00:49:33;22.97;;;12.67;;
22172;SDS011;11252;50.596;17.648;2022-12-29T00:52:04;22.00;;;13.90;;
22172;SDS011;11252;50.596;17.648;2022-12-29T00:54:33;11.90;;;8.67;;
22172;SDS011;11252;50.596;17.648;2022-12-29T00:57:06;15.10;;;8.50;;
22172;SDS011;11252;50.596;17.648;2022-12-29T00:59:38;14.17;;;8.03;;
22172;SDS011;11252;50.596;17.648;2022-12-29T01:02:06;14.00;;;7.90;;
22172;SDS011;11252;50.596;17.648;2022-12-29T01:04:35;21.90;;;12.00;;
22172;SDS011;11252;50.596;17.648;2022-12-29T01:07:02;15.53;;;10.37;;
22172;SDS011;11252;50.596;17.648;2022-12-29T01:09:31;21.70;;;11.97;;
22172;SDS011;11252;50.596;17.648;2022-12-29T01:12:17;9.63;;;6.23;;
22172;SDS011;11252;50.596;17.648;2022-12-29T01:15:05;18.20;;;11.10;;
22172;SDS011;11252;50.596;17.648;2022-12-29T01:17:34;40.00;;;21.87;;
22172;SDS011;11252;50.596;17.648;2022-12-29T01:20:02;71.83;;;35.07;;
22172;SDS011;11252;50.596;17.648;2022-12-29T01:22:30;41.67;;;16.23;;
22172;SDS011;11252;50.596;17.648;2022-12-29T01:24:57;18.90;;;9.10;;
22172;SDS011;11252;50.596;17.648;2022-12-29T01:27:24;21.83;;;11.07;;
22172;SDS011;11252;50.596;17.648;2022-12-29T01:29:52;19.03;;;9.97;;
22172;SDS011;11252;50.596;17.648;2022-12-29T01:32:19;11.93;;;7.67;;
22172;SDS011;11252;50.596;17.648;2022-12-29T01:34:47;11.03;;;6.80;;
22172;SDS011;11252;50.596;17.648;2022-12-29T01:37:14;10.77;;;6.90;;
22172;SDS011;11252;50.596;17.648;2022-12-29T01:39:43;9.57;;;7.40;;
22172;SDS011;11252;50.596;17.648;2022-12-29T01:42:17;12.83;;;8.83;;
22172;SDS011;11252;50.596;17.648;2022-12-29T01:47:19;10.00;;;6.47;;
22172;SDS011;11252;50.596;17.648;2022-12-29T01:50:04;9.33;;;6.17;;
22172;SDS011;11252;50.596;17.648;2022-12-29T01:52:42;10.97;;;6.87;;
22172;SDS011;11252;50.596;17.648;2022-12-29T01:55:17;8.43;;;6.77;;
22172;SDS011;11252;50.596;17.648;2022-12-29T01:57:46;9.30;;;5.70;;
22172;SDS011;11252;50.596;17.648;2022-12-29T02:00:18;10.57;;;7.27;;
22172;SDS011;11252;50.596;17.648;2022-12-29T02:02:47;8.47;;;6.17;;
22172;SDS011;11252;50.596;17.648;2022-12-29T02:08:04;10.63;;;6.60;;
22172;SDS011;11252;50.596;17.648;2022-12-29T02:10:32;9.47;;;7.10;;
22172;SDS011;11252;50.596;17.648;2022-12-29T02:13:01;10.33;;;7.10;;
22172;SDS011;11252;50.596;17.648;2022-12-29T02:37:28;9.57;;;6.27;;
22172;SDS011;11252;50.596;17.648;2022-12-29T02:45:38;7.10;;;5.73;;
22172;SDS011;11252;50.596;17.648;2022-12-29T02:51:04;6.00;;;5.40;;
22172;SDS011;11252;50.596;17.648;2022-12-29T02:53:42;7.30;;;5.70;;
22172;SDS011;11252;50.596;17.648;2022-12-29T02:56:29;11.23;;;9.47;;
22172;SDS011;11252;50.596;17.648;2022-12-29T02:58:57;10.43;;;9.23;;
22172;SDS011;11252;50.596;17.648;2022-12-29T03:01:48;13.23;;;9.13;;
22172;SDS011;11252;50.596;17.648;2022-12-29T03:16:14;10.27;;;7.23;;
22172;SDS011;11252;50.596;17.648;2022-12-29T03:18:55;7.90;;;6.30;;
22172;SDS011;11252;50.596;17.648;2022-12-29T03:21:38;14.40;;;12.27;;
22172;SDS011;11252;50.596;17.648;2022-12-29T03:24:38;8.93;;;6.93;;
22172;SDS011;11252;50.596;17.648;2022-12-29T03:27:09;11.03;;;6.77;;
22172;SDS011;11252;50.596;17.648;2022-12-29T03:29:41;12.43;;;7.43;;
22172;SDS011;11252;50.596;17.648;2022-12-29T03:32:13;11.80;;;6.93;;
22172;SDS011;11252;50.596;17.648;2022-12-29T03:34:43;7.63;;;5.90;;
22172;SDS011;11252;50.596;17.648;2022-12-29T03:37:12;5.40;;;4.90;;
22172;SDS011;11252;50.596;17.648;2022-12-29T03:39:43;7.57;;;5.80;;
22172;SDS011;11252;50.596;17.648;2022-12-29T03:42:13;7.57;;;5.63;;
22172;SDS011;11252;50.596;17.648;2022-12-29T03:44:43;8.90;;;6.03;;
22172;SDS011;11252;50.596;17.648;2022-12-29T03:47:14;6.10;;;5.50;;
22172;SDS011;11252;50.596;17.648;2022-12-29T03:49:42;8.40;;;5.47;;
22172;SDS011;11252;50.596;17.648;2022-12-29T03:52:10;7.57;;;5.30;;
22172;SDS011;11252;50.596;17.648;2022-12-29T03:54:38;8.00;;;5.30;;
22172;SDS011;11252;50.596;17.648;2022-12-29T03:57:05;7.03;;;6.00;;
22172;SDS011;11252;50.596;17.648;2022-12-29T03:59:33;7.33;;;5.20;;
22172;SDS011;11252;50.596;17.648;2022-12-29T04:02:00;7.17;;;5.90;;
22172;SDS011;11252;50.596;17.648;2022-12-29T04:04:28;8.67;;;6.07;;
22172;SDS011;11252;50.596;17.648;2022-12-29T04:06:56;8.47;;;6.03;;
22172;SDS011;11252;50.596;17.648;2022-12-29T04:09:23;8.30;;;5.80;;
22172;SDS011;11252;50.596;17.648;2022-12-29T04:11:51;8.87;;;6.67;;
22172;SDS011;11252;50.596;17.648;2022-12-29T04:14:18;12.13;;;7.67;;
22172;SDS011;11252;50.596;17.648;2022-12-29T04:16:45;8.53;;;6.40;;
22172;SDS011;11252;50.596;17.648;2022-12-29T04:19:12;7.70;;;6.13;;
22172;SDS011;11252;50.596;17.648;2022-12-29T04:21:39;10.73;;;7.67;;
22172;SDS011;11252;50.596;17.648;2022-12-29T04:24:07;8.83;;;6.40;;
22172;SDS011;11252;50.596;17.648;2022-12-29T04:26:34;11.03;;;6.57;;
22172;SDS011;11252;50.596;17.648;2022-12-29T04:29:02;8.07;;;5.87;;
22172;SDS011;11252;50.596;17.648;2022-12-29T04:31:32;10.47;;;7.20;;
22172;SDS011;11252;50.596;17.648;2022-12-29T04:34:00;9.37;;;6.77;;
22172;SDS011;11252;50.596;17.648;2022-12-29T04:36:27;7.53;;;6.10;;
22172;SDS011;11252;50.596;17.648;2022-12-29T04:38:55;9.33;;;6.30;;
22172;SDS011;11252;50.596;17.648;2022-12-29T04:41:23;12.60;;;7.90;;
22172;SDS011;11252;50.596;17.648;2022-12-29T04:43:51;11.37;;;6.70;;
22172;SDS011;11252;50.596;17.648;2022-12-29T04:46:18;10.43;;;7.20;;
22172;SDS011;11252;50.596;17.648;2022-12-29T04:48:45;16.40;;;9.43;;
22172;SDS011;11252;50.596;17.648;2022-12-29T04:51:13;9.07;;;6.10;;
22172;SDS011;11252;50.596;17.648;2022-12-29T04:53:40;14.53;;;7.57;;
22172;SDS011;11252;50.596;17.648;2022-12-29T04:56:08;18.70;;;9.30;;
22172;SDS011;11252;50.596;17.648;2022-12-29T04:58:36;17.33;;;8.77;;
22172;SDS011;11252;50.596;17.648;2022-12-29T05:01:03;10.50;;;7.03;;
22172;SDS011;11252;50.596;17.648;2022-12-29T05:03:30;8.47;;;6.93;;
22172;SDS011;11252;50.596;17.648;2022-12-29T05:05:58;10.60;;;6.17;;
22172;SDS011;11252;50.596;17.648;2022-12-29T05:08:25;10.20;;;6.50;;
22172;SDS011;11252;50.596;17.648;2022-12-29T05:10:53;26.43;;;19.00;;
22172;SDS011;11252;50.596;17.648;2022-12-29T05:13:22;13.83;;;8.87;;
22172;SDS011;11252;50.596;17.648;2022-12-29T05:15:53;12.43;;;9.43;;
22172;SDS011;11252;50.596;17.648;2022-12-29T05:18:20;10.27;;;6.43;;
22172;SDS011;11252;50.596;17.648;2022-12-29T05:20:48;11.37;;;7.27;;
22172;SDS011;11252;50.596;17.648;2022-12-29T05:23:16;16.30;;;10.50;;
22172;SDS011;11252;50.596;17.648;2022-12-29T05:25:44;19.13;;;11.47;;
22172;SDS011;11252;50.596;17.648;2022-12-29T05:28:14;14.13;;;9.03;;
22172;SDS011;11252;50.596;17.648;2022-12-29T05:30:43;10.73;;;7.50;;
22172;SDS011;11252;50.596;17.648;2022-12-29T05:33:14;11.87;;;9.77;;
22172;SDS011;11252;50.596;17.648;2022-12-29T05:35:41;19.60;;;14.90;;
22172;SDS011;11252;50.596;17.648;2022-12-29T05:38:08;24.10;;;14.63;;
22172;SDS011;11252;50.596;17.648;2022-12-29T05:40:36;28.53;;;14.10;;
22172;SDS011;11252;50.596;17.648;2022-12-29T05:43:03;12.33;;;8.60;;
22172;SDS011;11252;50.596;17.648;2022-12-29T05:45:30;12.33;;;7.30;;
22172;SDS011;11252;50.596;17.648;2022-12-29T05:47:57;15.60;;;10.27;;
22172;SDS011;11252;50.596;17.648;2022-12-29T05:50:24;16.10;;;12.10;;
22172;SDS011;11252;50.596;17.648;2022-12-29T05:52:53;16.07;;;10.73;;
22172;SDS011;11252;50.596;17.648;2022-12-29T05:55:20;13.80;;;9.03;;
22172;SDS011;11252;50.596;17.648;2022-12-29T05:57:48;8.60;;;6.67;;
22172;SDS011;11252;50.596;17.648;2022-12-29T06:00:18;7.60;;;6.43;;
22172;SDS011;11252;50.596;17.648;2022-12-29T06:02:45;7.67;;;5.50;;
22172;SDS011;11252;50.596;17.648;2022-12-29T06:05:13;7.63;;;5.63;;
22172;SDS011;11252;50.596;17.648;2022-12-29T06:07:40;13.57;;;8.70;;
22172;SDS011;11252;50.596;17.648;2022-12-29T06:10:07;8.20;;;5.50;;
22172;SDS011;11252;50.596;17.648;2022-12-29T06:12:35;7.57;;;4.93;;
22172;SDS011;11252;50.596;17.648;2022-12-29T06:15:03;8.90;;;5.07;;
22172;SDS011;11252;50.596;17.648;2022-12-29T06:17:30;12.73;;;6.17;;
22172;SDS011;11252;50.596;17.648;2022-12-29T06:19:58;11.73;;;8.57;;
22172;SDS011;11252;50.596;17.648;2022-12-29T06:22:25;23.13;;;12.57;;
22172;SDS011;11252;50.596;17.648;2022-12-29T06:24:52;16.40;;;9.67;;
22172;SDS011;11252;50.596;17.648;2022-12-29T06:27:23;12.80;;;8.00;;
22172;SDS011;11252;50.596;17.648;2022-12-29T06:29:51;20.97;;;12.13;;
22172;SDS011;11252;50.596;17.648;2022-12-29T06:32:18;15.10;;;9.50;;
22172;SDS011;11252;50.596;17.648;2022-12-29T06:34:46;27.03;;;12.97;;
22172;SDS011;11252;50.596;17.648;2022-12-29T06:37:13;29.30;;;14.23;;
22172;SDS011;11252;50.596;17.648;2022-12-29T06:39:41;88.13;;;40.73;;
22172;SDS011;11252;50.596;17.648;2022-12-29T06:42:09;99.13;;;52.83;;
22172;SDS011;11252;50.596;17.648;2022-12-29T06:44:37;48.63;;;27.03;;
22172;SDS011;11252;50.596;17.648;2022-12-29T06:47:04;26.07;;;15.30;;
22172;SDS011;11252;50.596;17.648;2022-12-29T06:49:32;19.93;;;12.67;;
22172;SDS011;11252;50.596;17.648;2022-12-29T06:52:00;11.50;;;7.97;;
22172;SDS011;11252;50.596;17.648;2022-12-29T06:54:38;16.20;;;9.70;;
22172;SDS011;11252;50.596;17.648;2022-12-29T06:57:05;18.23;;;10.87;;
22172;SDS011;11252;50.596;17.648;2022-12-29T06:59:32;15.57;;;9.27;;
22172;SDS011;11252;50.596;17.648;2022-12-29T07:02:00;11.03;;;7.27;;
22172;SDS011;11252;50.596;17.648;2022-12-29T07:04:28;16.53;;;9.60;;
22172;SDS011;11252;50.596;17.648;2022-12-29T07:06:58;16.77;;;11.63;;
22172;SDS011;11252;50.596;17.648;2022-12-29T07:09:25;23.03;;;17.53;;
22172;SDS011;11252;50.596;17.648;2022-12-29T07:11:53;33.57;;;21.43;;
22172;SDS011;11252;50.596;17.648;2022-12-29T07:14:20;16.40;;;12.93;;
22172;SDS011;11252;50.596;17.648;2022-12-29T07:16:47;8.80;;;6.23;;
22172;SDS011;11252;50.596;17.648;2022-12-29T07:19:15;4.57;;;4.00;;
22172;SDS011;11252;50.596;17.648;2022-12-29T07:21:42;5.63;;;3.90;;
22172;SDS011;11252;50.596;17.648;2022-12-29T07:24:12;4.33;;;2.67;;
22172;SDS011;11252;50.596;17.648;2022-12-29T07:26:39;4.27;;;2.77;;
22172;SDS011;11252;50.596;17.648;2022-12-29T07:29:08;3.43;;;2.70;;
22172;SDS011;11252;50.596;17.648;2022-12-29T07:31:35;5.40;;;2.77;;
22172;SDS011;11252;50.596;17.648;2022-12-29T07:34:02;5.27;;;3.20;;
22172;SDS011;11252;50.596;17.648;2022-12-29T07:36:29;4.87;;;3.63;;
22172;SDS011;11252;50.596;17.648;2022-12-29T07:39:00;5.00;;;3.70;;
22172;SDS011;11252;50.596;17.648;2022-12-29T07:41:28;7.53;;;3.80;;
22172;SDS011;11252;50.596;17.648;2022-12-29T07:43:55;4.47;;;3.17;;
22172;SDS011;11252;50.596;17.648;2022-12-29T07:46:23;7.00;;;4.17;;
22172;SDS011;11252;50.596;17.648;2022-12-29T07:49:10;6.60;;;3.60;;
22172;SDS011;11252;50.596;17.648;2022-12-29T07:51:37;5.83;;;3.50;;
22172;SDS011;11252;50.596;17.648;2022-12-29T07:54:04;5.30;;;4.30;;
22172;SDS011;11252;50.596;17.648;2022-12-29T07:56:32;6.40;;;4.77;;
22172;SDS011;11252;50.596;17.648;2022-12-29T07:58:59;7.70;;;5.00;;
22172;SDS011;11252;50.596;17.648;2022-12-29T08:01:27;8.67;;;5.70;;
22172;SDS011;11252;50.596;17.648;2022-12-29T08:03:54;11.20;;;8.73;;
22172;SDS011;11252;50.596;17.648;2022-12-29T08:06:23;12.17;;;8.30;;
22172;SDS011;11252;50.596;17.648;2022-12-29T08:08:50;3.80;;;3.30;;
22172;SDS011;11252;50.596;17.648;2022-12-29T08:11:17;7.10;;;4.47;;
22172;SDS011;11252;50.596;17.648;2022-12-29T08:13:45;4.97;;;2.70;;
22172;SDS011;11252;50.596;17.648;2022-12-29T08:16:12;4.97;;;2.80;;
22172;SDS011;11252;50.596;17.648;2022-12-29T08:18:39;4.77;;;2.90;;
22172;SDS011;11252;50.596;17.648;2022-12-29T08:21:07;4.57;;;2.80;;
22172;SDS011;11252;50.596;17.648;2022-12-29T08:23:34;3.53;;;2.47;;
22172;SDS011;11252;50.596;17.648;2022-12-29T08:26:03;3.83;;;2.63;;
22172;SDS011;11252;50.596;17.648;2022-12-29T08:28:32;4.80;;;3.00;;
22172;SDS011;11252;50.596;17.648;2022-12-29T08:31:00;4.70;;;3.67;;
22172;SDS011;11252;50.596;17.648;2022-12-29T08:33:28;9.67;;;6.70;;
22172;SDS011;11252;50.596;17.648;2022-12-29T08:36:00;6.00;;;4.50;;
22172;SDS011;11252;50.596;17.648;2022-12-29T08:38:27;6.37;;;3.90;;
22172;SDS011;11252;50.596;17.648;2022-12-29T08:40:58;9.67;;;3.57;;
22172;SDS011;11252;50.596;17.648;2022-12-29T08:43:30;9.57;;;5.00;;
22172;SDS011;11252;50.596;17.648;2022-12-29T08:45:58;16.63;;;8.20;;
22172;SDS011;11252;50.596;17.648;2022-12-29T08:48:26;10.57;;;6.70;;
22172;SDS011;11252;50.596;17.648;2022-12-29T08:50:54;4.33;;;3.03;;
22172;SDS011;11252;50.596;17.648;2022-12-29T08:53:21;5.37;;;3.40;;
22172;SDS011;11252;50.596;17.648;2022-12-29T08:55:54;5.13;;;2.37;;
22172;SDS011;11252;50.596;17.648;2022-12-29T08:58:30;3.70;;;2.30;;
22172;SDS011;11252;50.596;17.648;2022-12-29T09:00:58;4.37;;;3.10;;
22172;SDS011;11252;50.596;17.648;2022-12-29T09:03:26;6.27;;;3.33;;
22172;SDS011;11252;50.596;17.648;2022-12-29T09:06:14;7.80;;;3.53;;
22172;SDS011;11252;50.596;17.648;2022-12-29T09:08:43;6.60;;;3.97;;
22172;SDS011;11252;50.596;17.648;2022-12-29T09:11:13;8.37;;;5.90;;
22172;SDS011;11252;50.596;17.648;2022-12-29T09:13:40;10.27;;;5.40;;
22172;SDS011;11252;50.596;17.648;2022-12-29T09:16:08;8.20;;;5.13;;
22172;SDS011;11252;50.596;17.648;2022-12-29T09:18:36;8.70;;;5.13;;
22172;SDS011;11252;50.596;17.648;2022-12-29T09:21:03;8.63;;;4.80;;
22172;SDS011;11252;50.596;17.648;2022-12-29T09:23:32;7.57;;;4.47;;
22172;SDS011;11252;50.596;17.648;2022-12-29T09:26:00;9.40;;;4.87;;
22172;SDS011;11252;50.596;17.648;2022-12-29T09:28:27;8.30;;;4.30;;
22172;SDS011;11252;50.596;17.648;2022-12-29T09:30:56;6.47;;;4.20;;
22172;SDS011;11252;50.596;17.648;2022-12-29T09:33:24;7.43;;;4.73;;
22172;SDS011;11252;50.596;17.648;2022-12-29T09:35:53;7.67;;;4.43;;
22172;SDS011;11252;50.596;17.648;2022-12-29T09:38:22;9.37;;;4.53;;
22172;SDS011;11252;50.596;17.648;2022-12-29T09:40:51;6.67;;;4.30;;
22172;SDS011;11252;50.596;17.648;2022-12-29T09:46:18;8.50;;;4.00;;
22172;SDS011;11252;50.596;17.648;2022-12-29T09:51:48;11.07;;;6.27;;
22172;SDS011;11252;50.596;17.648;2022-12-29T09:54:34;10.83;;;5.67;;
22172;SDS011;11252;50.596;17.648;2022-12-29T09:57:04;10.10;;;6.40;;
22172;SDS011;11252;50.596;17.648;2022-12-29T09:59:41;16.33;;;8.70;;
22172;SDS011;11252;50.596;17.648;2022-12-29T10:04:55;15.80;;;9.23;;
22172;SDS011;11252;50.596;17.648;2022-12-29T10:07:33;15.67;;;9.00;;
22172;SDS011;11252;50.596;17.648;2022-12-29T10:10:23;14.00;;;8.97;;
22172;SDS011;11252;50.596;17.648;2022-12-29T10:15:32;11.37;;;8.17;;
22172;SDS011;11252;50.596;17.648;2022-12-29T10:23:42;11.50;;;8.67;;
22172;SDS011;11252;50.596;17.648;2022-12-29T10:26:17;13.47;;;7.63;;
22172;SDS011;11252;50.596;17.648;2022-12-29T10:28:56;8.63;;;5.87;;
22172;SDS011;11252;50.596;17.648;2022-12-29T10:31:37;10.10;;;6.17;;
22172;SDS011;11252;50.596;17.648;2022-12-29T10:34:16;7.73;;;5.97;;
22172;SDS011;11252;50.596;17.648;2022-12-29T10:36:49;9.63;;;5.90;;
22172;SDS011;11252;50.596;17.648;2022-12-29T10:39:29;17.67;;;9.93;;
22172;SDS011;11252;50.596;17.648;2022-12-29T10:42:09;12.77;;;6.77;;
22172;SDS011;11252;50.596;17.648;2022-12-29T10:44:48;7.57;;;6.37;;
22172;SDS011;11252;50.596;17.648;2022-12-29T10:47:16;13.67;;;9.70;;
22172;SDS011;11252;50.596;17.648;2022-12-29T10:49:46;10.37;;;7.53;;
22172;SDS011;11252;50.596;17.648;2022-12-29T10:52:16;12.97;;;9.03;;
22172;SDS011;11252;50.596;17.648;2022-12-29T10:54:51;16.67;;;9.43;;
22172;SDS011;11252;50.596;17.648;2022-12-29T10:57:27;18.37;;;8.90;;
22172;SDS011;11252;50.596;17.648;2022-12-29T11:00:09;23.30;;;12.07;;
22172;SDS011;11252;50.596;17.648;2022-12-29T11:08:00;34.03;;;22.80;;
22172;SDS011;11252;50.596;17.648;2022-12-29T11:10:41;39.43;;;21.57;;
22172;SDS011;11252;50.596;17.648;2022-12-29T11:13:14;29.70;;;17.13;;
22172;SDS011;11252;50.596;17.648;2022-12-29T11:15:51;28.30;;;17.20;;
22172;SDS011;11252;50.596;17.648;2022-12-29T11:18:23;26.27;;;15.93;;
22172;SDS011;11252;50.596;17.648;2022-12-29T11:20:53;22.93;;;15.27;;
22172;SDS011;11252;50.596;17.648;2022-12-29T11:26:27;88.53;;;36.90;;
22172;SDS011;11252;50.596;17.648;2022-12-29T11:31:48;14.10;;;8.07;;
22172;SDS011;11252;50.596;17.648;2022-12-29T11:34:22;11.17;;;6.73;;
22172;SDS011;11252;50.596;17.648;2022-12-29T11:36:58;14.17;;;8.00;;
22172;SDS011;11252;50.596;17.648;2022-12-29T11:39:34;11.30;;;7.30;;
22172;SDS011;11252;50.596;17.648;2022-12-29T11:42:12;8.33;;;6.50;;
22172;SDS011;11252;50.596;17.648;2022-12-29T11:44:43;12.30;;;8.03;;
22172;SDS011;11252;50.596;17.648;2022-12-29T11:47:29;10.70;;;7.13;;
22172;SDS011;11252;50.596;17.648;2022-12-29T11:50:03;13.63;;;7.33;;
22172;SDS011;11252;50.596;17.648;2022-12-29T11:52:34;14.27;;;8.30;;
22172;SDS011;11252;50.596;17.648;2022-12-29T11:55:09;15.77;;;9.73;;
22172;SDS011;11252;50.596;17.648;2022-12-29T11:57:48;17.73;;;10.30;;
22172;SDS011;11252;50.596;17.648;2022-12-29T12:00:19;18.77;;;10.87;;
22172;SDS011;11252;50.596;17.648;2022-12-29T12:02:50;13.43;;;8.13;;
22172;SDS011;11252;50.596;17.648;2022-12-29T12:05:46;10.43;;;6.43;;
22172;SDS011;11252;50.596;17.648;2022-12-29T12:08:34;11.00;;;6.40;;
22172;SDS011;11252;50.596;17.648;2022-12-29T12:11:10;9.43;;;6.10;;
22172;SDS011;11252;50.596;17.648;2022-12-29T12:16:23;13.90;;;8.97;;
22172;SDS011;11252;50.596;17.648;2022-12-29T12:18:56;16.10;;;9.47;;
22172;SDS011;11252;50.596;17.648;2022-12-29T12:21:37;35.67;;;18.90;;
22172;SDS011;11252;50.596;17.648;2022-12-29T12:27:11;25.73;;;16.10;;
22172;SDS011;11252;50.596;17.648;2022-12-29T12:34:58;34.30;;;19.43;;
22172;SDS011;11252;50.596;17.648;2022-12-29T12:42:49;49.57;;;23.53;;
22172;SDS011;11252;50.596;17.648;2022-12-29T12:48:18;18.07;;;10.20;;
22172;SDS011;11252;50.596;17.648;2022-12-29T13:07:17;32.93;;;19.13;;
22172;SDS011;11252;50.596;17.648;2022-12-29T13:12:29;35.53;;;19.37;;
22172;SDS011;11252;50.596;17.648;2022-12-29T13:15:11;13.10;;;9.03;;
22172;SDS011;11252;50.596;17.648;2022-12-29T13:17:45;13.37;;;9.20;;
22172;SDS011;11252;50.596;17.648;2022-12-29T13:26:20;18.47;;;11.40;;
22172;SDS011;11252;50.596;17.648;2022-12-29T13:37:35;26.77;;;16.83;;
22172;SDS011;11252;50.596;17.648;2022-12-29T13:40:15;26.00;;;17.37;;
22172;SDS011;11252;50.596;17.648;2022-12-29T13:42:44;26.23;;;18.53;;
22172;SDS011;11252;50.596;17.648;2022-12-29T13:45:14;31.17;;;20.80;;
22172;SDS011;11252;50.596;17.648;2022-12-29T13:50:25;27.47;;;14.53;;
22172;SDS011;11252;50.596;17.648;2022-12-29T13:55:55;75.47;;;35.97;;
22172;SDS011;11252;50.596;17.648;2022-12-29T14:02:03;24.97;;;19.10;;
22172;SDS011;11252;50.596;17.648;2022-12-29T14:04:58;44.73;;;24.60;;
22172;SDS011;11252;50.596;17.648;2022-12-29T14:07:38;42.60;;;26.37;;
22172;SDS011;11252;50.596;17.648;2022-12-29T14:10:19;52.93;;;34.03;;
22172;SDS011;11252;50.596;17.648;2022-12-29T14:13:05;40.27;;;25.10;;
22172;SDS011;11252;50.596;17.648;2022-12-29T14:15:42;32.70;;;19.73;;
22172;SDS011;11252;50.596;17.648;2022-12-29T14:21:08;34.40;;;21.50;;
22172;SDS011;11252;50.596;17.648;2022-12-29T14:28:56;24.03;;;14.70;;
22172;SDS011;11252;50.596;17.648;2022-12-29T14:31:51;32.97;;;22.93;;
22172;SDS011;11252;50.596;17.648;2022-12-29T14:42:04;30.30;;;19.33;;
22172;SDS011;11252;50.596;17.648;2022-12-29T14:44:52;35.23;;;22.40;;
22172;SDS011;11252;50.596;17.648;2022-12-29T14:58:20;48.27;;;29.37;;
22172;SDS011;11252;50.596;17.648;2022-12-29T15:00:53;50.10;;;29.73;;
22172;SDS011;11252;50.596;17.648;2022-12-29T15:03:23;53.83;;;33.17;;
22172;SDS011;11252;50.596;17.648;2022-12-29T15:06:04;45.27;;;28.50;;
22172;SDS011;11252;50.596;17.648;2022-12-29T15:08:52;33.50;;;23.90;;
22172;SDS011;11252;50.596;17.648;2022-12-29T15:14:02;38.70;;;22.67;;
22172;SDS011;11252;50.596;17.648;2022-12-29T15:16:34;39.53;;;22.27;;
22172;SDS011;11252;50.596;17.648;2022-12-29T15:19:03;32.73;;;18.40;;
22172;SDS011;11252;50.596;17.648;2022-12-29T15:21:32;33.33;;;19.87;;
22172;SDS011;11252;50.596;17.648;2022-12-29T15:24:02;28.53;;;17.00;;
22172;SDS011;11252;50.596;17.648;2022-12-29T15:26:38;35.50;;;19.37;;
22172;SDS011;11252;50.596;17.648;2022-12-29T15:32:01;41.57;;;25.90;;
22172;SDS011;11252;50.596;17.648;2022-12-29T15:34:44;37.63;;;22.97;;
22172;SDS011;11252;50.596;17.648;2022-12-29T15:37:20;30.90;;;20.93;;
22172;SDS011;11252;50.596;17.648;2022-12-29T15:39:48;30.97;;;22.47;;
22172;SDS011;11252;50.596;17.648;2022-12-29T15:45:18;35.67;;;22.23;;
22172;SDS011;11252;50.596;17.648;2022-12-29T15:47:45;45.90;;;27.90;;
22172;SDS011;11252;50.596;17.648;2022-12-29T15:50:37;30.03;;;19.17;;
22172;SDS011;11252;50.596;17.648;2022-12-29T15:53:10;20.60;;;14.33;;
22172;SDS011;11252;50.596;17.648;2022-12-29T15:55:41;20.13;;;14.53;;
22172;SDS011;11252;50.596;17.648;2022-12-29T15:58:21;24.27;;;16.03;;
22172;SDS011;11252;50.596;17.648;2022-12-29T16:00:54;30.40;;;20.37;;
22172;SDS011;11252;50.596;17.648;2022-12-29T16:03:24;35.20;;;24.23;;
22172;SDS011;11252;50.596;17.648;2022-12-29T16:05:58;58.67;;;37.57;;
22172;SDS011;11252;50.596;17.648;2022-12-29T16:08:58;65.17;;;37.40;;
22172;SDS011;11252;50.596;17.648;2022-12-29T16:11:33;37.17;;;25.43;;
22172;SDS011;11252;50.596;17.648;2022-12-29T16:14:07;29.90;;;22.00;;
22172;SDS011;11252;50.596;17.648;2022-12-29T16:16:44;39.97;;;26.13;;
22172;SDS011;11252;50.596;17.648;2022-12-29T16:19:35;35.97;;;20.43;;
22172;SDS011;11252;50.596;17.648;2022-12-29T16:22:10;57.53;;;37.97;;
22172;SDS011;11252;50.596;17.648;2022-12-29T16:24:44;61.27;;;44.20;;
22172;SDS011;11252;50.596;17.648;2022-12-29T16:27:19;64.53;;;39.77;;
22172;SDS011;11252;50.596;17.648;2022-12-29T16:30:34;56.67;;;38.57;;
22172;SDS011;11252;50.596;17.648;2022-12-29T16:33:02;43.20;;;29.67;;
22172;SDS011;11252;50.596;17.648;2022-12-29T16:35:39;35.57;;;24.17;;
22172;SDS011;11252;50.596;17.648;2022-12-29T16:38:13;104.13;;;51.17;;
22172;SDS011;11252;50.596;17.648;2022-12-29T16:41:16;54.70;;;29.20;;
22172;SDS011;11252;50.596;17.648;2022-12-29T16:44:15;19.97;;;16.00;;
22172;SDS011;11252;50.596;17.648;2022-12-29T16:47:32;28.87;;;19.40;;
22172;SDS011;11252;50.596;17.648;2022-12-29T16:49:40;57.67;;;34.40;;
22172;SDS011;11252;50.596;17.648;2022-12-29T16:52:13;70.93;;;39.07;;
22172;SDS011;11252;50.596;17.648;2022-12-29T16:54:54;53.63;;;32.57;;
22172;SDS011;11252;50.596;17.648;2022-12-29T16:57:23;54.77;;;32.60;;
22172;SDS011;11252;50.596;17.648;2022-12-29T16:59:55;54.83;;;33.53;;
22172;SDS011;11252;50.596;17.648;2022-12-29T17:02:28;45.37;;;25.73;;
22172;SDS011;11252;50.596;17.648;2022-12-29T17:04:57;40.57;;;27.23;;
22172;SDS011;11252;50.596;17.648;2022-12-29T17:07:25;38.27;;;24.77;;
22172;SDS011;11252;50.596;17.648;2022-12-29T17:09:54;44.73;;;28.83;;
22172;SDS011;11252;50.596;17.648;2022-12-29T17:12:28;54.93;;;32.97;;
22172;SDS011;11252;50.596;17.648;2022-12-29T17:14:58;38.20;;;24.77;;
22172;SDS011;11252;50.596;17.648;2022-12-29T17:17:42;46.57;;;30.77;;
22172;SDS011;11252;50.596;17.648;2022-12-29T17:20:20;53.03;;;31.03;;
22172;SDS011;11252;50.596;17.648;2022-12-29T17:22:48;64.97;;;35.00;;
22172;SDS011;11252;50.596;17.648;2022-12-29T17:25:18;70.67;;;37.30;;
22172;SDS011;11252;50.596;17.648;2022-12-29T17:27:49;76.50;;;37.97;;
22172;SDS011;11252;50.596;17.648;2022-12-29T17:30:23;66.93;;;35.17;;
22172;SDS011;11252;50.596;17.648;2022-12-29T17:33:03;54.57;;;28.53;;
22172;SDS011;11252;50.596;17.648;2022-12-29T17:35:34;58.77;;;35.90;;
22172;SDS011;11252;50.596;17.648;2022-12-29T17:38:03;74.90;;;45.43;;
22172;SDS011;11252;50.596;17.648;2022-12-29T17:40:53;68.70;;;40.00;;
22172;SDS011;11252;50.596;17.648;2022-12-29T17:43:22;67.07;;;40.70;;
22172;SDS011;11252;50.596;17.648;2022-12-29T17:45:56;67.47;;;40.17;;